Time;durP1;ratioP1;P1;durP2;ratioP2;P2;SDS_P1;SDS_P2;PMS_P1;PMS_P2;Temp;Humidity;BMP_temperature;BMP_pressure;BME280_temperature;BME280_humidity;BME280_pressure;Samples;Min_cycle;Max_cycle;Signal;HPM_P1;HPM_P2
2021/04/27 00:00:04;;;;;;;15.05;6.38;;;;;;;1.97;61.22;94861.09;5047768;28;20525;-72
2021/04/27 00:02:29;;;;;;;13.88;6.53;;;;;;;1.99;60.92;94865.06;5038663;28;20037;-71
2021/04/27 00:04:55;;;;;;;12.52;5.90;;;;;;;1.84;61.44;94856.97;5031942;28;20037;-74
2021/04/27 00:07:20;;;;;;;17.58;7.65;;;;;;;1.82;61.40;94862.38;5039753;28;20040;-71
2021/04/27 00:09:47;;;;;;;11.30;5.97;;;;;;;1.77;61.42;94851.13;5051385;28;20041;-71
2021/04/27 00:12:13;;;;;;;11.90;6.05;;;;;;;1.80;61.20;94856.66;5052004;28;20410;-71
2021/04/27 00:14:39;;;;;;;12.25;6.13;;;;;;;1.69;61.32;94850.47;5040776;28;20033;-71
2021/04/27 00:17:05;;;;;;;12.13;6.13;;;;;;;1.55;61.27;94839.56;5050800;28;20068;-71
2021/04/27 00:19:31;;;;;;;13.45;6.75;;;;;;;1.44;62.41;94842.97;5050269;28;20037;-72
2021/04/27 00:21:57;;;;;;;13.40;6.18;;;;;;;1.41;62.61;94827.88;5046271;28;20371;-71
2021/04/27 00:24:23;;;;;;;13.43;6.00;;;;;;;1.45;62.08;94829.00;5048294;28;20483;-71
2021/04/27 00:26:48;;;;;;;12.48;6.22;;;;;;;1.36;62.21;94825.16;5043781;28;20494;-71
2021/04/27 00:29:14;;;;;;;13.80;6.50;;;;;;;1.25;62.50;94815.59;5044425;28;20045;-72
2021/04/27 00:31:39;;;;;;;11.32;6.05;;;;;;;1.19;62.82;94818.09;5031963;28;20045;-71
2021/04/27 00:34:05;;;;;;;16.00;6.28;;;;;;;1.09;62.88;94815.25;5031458;28;20241;-71
2021/04/27 00:36:30;;;;;;;14.90;6.68;;;;;;;1.00;63.26;94811.44;5042377;28;20033;-71
2021/04/27 00:38:57;;;;;;;13.65;6.13;;;;;;;0.91;63.66;94802.44;5044349;28;20521;-71
2021/04/27 00:41:22;;;;;;;12.45;6.05;;;;;;;0.93;63.78;94805.59;5050541;28;20048;-71
2021/04/27 00:43:48;;;;;;;16.90;6.38;;;;;;;0.83;63.76;94801.78;5048950;28;20045;-71
2021/04/27 00:46:14;;;;;;;12.95;6.60;;;;;;;0.80;64.30;94802.19;5040906;28;20049;-72
2021/04/27 00:48:39;;;;;;;13.13;6.93;;;;;;;0.80;64.46;94802.19;5040686;28;20529;-72
2021/04/27 00:51:05;;;;;;;13.85;6.22;;;;;;;0.80;64.25;94797.03;5044068;28;20046;-72
2021/04/27 00:53:32;;;;;;;13.63;6.30;;;;;;;0.72;64.50;94799.97;5040178;28;20043;-72
2021/04/27 00:55:57;;;;;;;14.70;6.15;;;;;;;0.76;64.79;94801.09;5035692;28;20053;-72
2021/04/27 00:58:24;;;;;;;13.98;6.32;;;;;;;0.80;64.36;94797.03;5041808;28;20387;-72
2021/04/27 01:00:51;;;;;;;16.40;7.22;;;;;;;0.63;64.71;94801.28;5048604;28;20394;-72
2021/04/27 01:03:18;;;;;;;13.23;5.88;;;;;;;0.70;64.41;94791.63;5040509;28;20045;-72
2021/04/27 01:05:45;;;;;;;13.68;6.10;;;;;;;0.74;64.52;94797.16;5031230;28;20038;-72
2021/04/27 01:08:34;;;;;;;13.48;6.28;;;;;;;0.71;64.20;94797.59;5039250;28;20048;-72
2021/04/27 01:11:21;;;;;;;10.98;6.07;;;;;;;0.64;64.32;94793.31;5050026;28;20522;-72
2021/04/27 01:14:06;;;;;;;14.93;6.30;;;;;;;0.54;65.13;94789.69;5030550;28;20499;-72
2021/04/27 01:16:35;;;;;;;12.70;5.90;;;;;;;0.40;64.87;94792.47;5035140;28;20037;-72
2021/04/27 01:19:01;;;;;;;13.60;6.47;;;;;;;0.30;65.43;94781.88;5034022;28;20391;-72
2021/04/27 01:21:28;;;;;;;12.30;6.25;;;;;;;0.23;65.67;94788.97;5041205;28;20378;-72
2021/04/27 01:24:09;;;;;;;12.18;6.57;;;;;;;0.20;65.93;94781.66;5031048;28;20388;-72
2021/04/27 01:26:37;;;;;;;15.45;6.53;;;;;;;0.13;66.23;94787.72;5035005;28;20045;-72
2021/04/27 01:29:06;;;;;;;17.90;6.63;;;;;;;0.09;66.01;94775.44;5045437;28;20048;-72
2021/04/27 01:31:32;;;;;;;13.00;6.40;;;;;;;0.04;66.43;94783.84;5038265;28;20585;-72
2021/04/27 01:33:59;;;;;;;14.23;6.50;;;;;;;0.10;66.50;94777.81;5030581;28;20419;-72
2021/04/27 01:36:24;;;;;;;15.55;6.90;;;;;;;0.06;66.44;94776.66;5030657;28;20501;-72
2021/04/27 01:38:50;;;;;;;12.98;6.53;;;;;;;0.03;66.52;94787.47;5032110;28;20041;-72
2021/04/27 01:41:17;;;;;;;14.95;6.85;;;;;;;-0.13;67.32;94785.47;5042947;28;20075;-72
2021/04/27 01:43:45;;;;;;;13.32;6.43;;;;;;;-0.05;67.40;94785.19;5046447;28;20040;-72
2021/04/27 01:46:11;;;;;;;13.90;6.53;;;;;;;-0.04;66.67;94782.38;5042928;28;20045;-72
2021/04/27 01:48:38;;;;;;;11.88;6.70;;;;;;;-0.08;66.35;94785.63;5036598;28;20433;-72
2021/04/27 01:51:08;;;;;;;12.98;6.70;;;;;;;-0.17;66.59;94779.97;5030313;28;20522;-72
2021/04/27 01:53:35;;;;;;;13.88;6.28;;;;;;;-0.20;67.17;94783.78;5043775;28;20060;-72
2021/04/27 01:56:01;;;;;;;15.68;5.90;;;;;;;-0.24;67.44;94780.06;5045086;28;20510;-72
2021/04/27 01:58:26;;;;;;;14.60;6.47;;;;;;;-0.22;67.76;94785.78;5043732;28;20049;-73
2021/04/27 02:00:52;;;;;;;13.27;6.13;;;;;;;-0.19;67.16;94780.19;5041315;28;20053;-72
2021/04/27 02:03:17;;;;;;;17.75;6.85;;;;;;;-0.14;67.54;94781.31;5044208;28;20110;-72
2021/04/27 02:05:43;;;;;;;11.30;6.50;;;;;;;-0.22;67.83;94780.59;5041792;28;20037;-72
2021/04/27 02:08:09;;;;;;;13.75;6.70;;;;;;;-0.26;67.24;94783.84;5044622;28;20472;-72
2021/04/27 02:10:35;;;;;;;14.70;6.72;;;;;;;-0.39;67.94;94779.66;5050387;28;20037;-72
2021/04/27 02:13:12;;;;;;;12.35;6.43;;;;;;;-0.43;67.88;94778.50;5053726;28;20418;-72
2021/04/27 02:15:39;;;;;;;11.43;5.75;;;;;;;-0.43;67.52;94773.31;5048644;28;20090;-72
2021/04/27 02:18:52;;;;;;;14.30;6.30;;;;;;;-0.39;68.18;94779.66;5036087;28;20118;-72
2021/04/27 02:21:18;;;;;;;13.63;6.47;;;;;;;-0.36;68.80;94779.19;5027412;28;20048;-71
2021/04/27 02:23:45;;;;;;;10.82;6.20;;;;;;;-0.33;68.93;94776.22;5048716;28;20060;-72
2021/04/27 02:26:13;;;;;;;15.60;6.65;;;;;;;-0.45;69.30;94788.28;5033477;28;20045;-72
2021/04/27 02:28:40;;;;;;;13.88;6.47;;;;;;;-0.44;70.04;94777.72;5038803;28;20037;-72
2021/04/27 02:31:06;;;;;;;14.93;6.93;;;;;;;-0.39;70.11;94779.66;5047435;28;20041;-72
2021/04/27 02:33:34;;;;;;;13.27;6.25;;;;;;;-0.43;69.59;94773.31;5047323;28;20091;-71
2021/04/27 02:35:59;;;;;;;14.25;6.47;;;;;;;-0.32;69.25;94780.34;5033503;28;20053;-72
2021/04/27 02:38:25;;;;;;;14.57;6.63;;;;;;;-0.29;69.37;94774.75;5036840;28;20033;-72
2021/04/27 02:40:56;;;;;;;17.38;6.47;;;;;;;-0.28;70.26;94771.16;5043730;28;20076;-72
2021/04/27 02:43:23;;;;;;;11.30;6.57;;;;;;;-0.25;69.43;94762.94;5034447;28;20041;-72
2021/04/27 02:45:49;;;;;;;14.27;6.75;;;;;;;-0.27;69.62;94762.41;5042005;28;20044;-72
2021/04/27 02:48:20;;;;;;;12.13;6.38;;;;;;;-0.20;69.45;94768.28;5043585;28;20063;-72
2021/04/27 02:50:52;;;;;;;16.20;7.22;;;;;;;-0.23;69.48;94760.94;5052807;28;20094;-72
2021/04/27 02:53:17;;;;;;;13.50;6.88;;;;;;;-0.23;69.48;94763.53;5038080;28;20052;-72
2021/04/27 02:55:43;;;;;;;12.18;5.95;;;;;;;-0.24;70.01;94766.34;5033248;28;20045;-72
2021/04/27 02:58:10;;;;;;;15.13;6.30;;;;;;;-0.32;70.52;94754.50;5032550;28;20042;-72
2021/04/27 03:00:37;;;;;;;11.95;6.82;;;;;;;-0.37;70.57;94756.97;5051218;28;20123;-72
2021/04/27 03:03:02;;;;;;;14.25;6.95;;;;;;;-0.34;70.49;94751.34;5046222;28;20067;-73
2021/04/27 03:05:28;;;;;;;22.13;7.22;;;;;;;-0.30;70.09;94747.31;5040588;28;20514;-72
2021/04/27 03:07:54;;;;;;;12.77;6.65;;;;;;;-0.34;70.24;94741.00;5033308;28;20038;-72
2021/04/27 03:10:20;;;;;;;12.98;6.18;;;;;;;-0.40;70.63;94747.06;5039818;28;20572;-72
2021/04/27 03:12:46;;;;;;;15.05;7.05;;;;;;;-0.37;71.03;94733.69;5053216;28;20052;-72
2021/04/27 03:15:13;;;;;;;13.40;7.38;;;;;;;-0.32;70.95;94733.03;5034608;28;20530;-72
2021/04/27 03:17:39;;;;;;;14.88;6.80;;;;;;;-0.32;70.92;94728.63;5038010;28;20402;-72
2021/04/27 03:20:07;;;;;;;15.93;7.60;;;;;;;-0.36;71.25;94735.25;5044593;28;20045;-72
2021/04/27 03:22:33;;;;;;;12.82;6.70;;;;;;;-0.28;71.34;94724.59;5035723;28;20033;-72
2021/04/27 03:24:58;;;;;;;20.67;7.63;;;;;;;-0.28;71.61;94729.78;5032444;28;20454;-72
2021/04/27 03:27:24;;;;;;;16.60;7.30;;;;;;;-0.22;71.46;94723.72;5032729;28;20037;-72
2021/04/27 03:29:50;;;;;;;14.77;7.07;;;;;;;-0.20;71.47;94720.94;5035181;28;20034;-72
2021/04/27 03:32:16;;;;;;;15.00;7.82;;;;;;;-0.31;71.72;94722.47;5050602;28;20072;-73
2021/04/27 03:34:42;;;;;;;15.20;7.57;;;;;;;-0.13;71.16;94726.00;5032563;28;20037;-72
2021/04/27 03:37:07;;;;;;;16.55;7.38;;;;;;;-0.19;71.67;94723.31;5032246;28;20493;-72
2021/04/27 03:39:33;;;;;;;16.23;7.40;;;;;;;-0.20;71.49;94726.88;5047427;28;20036;-72
2021/04/27 03:41:59;;;;;;;13.30;7.43;;;;;;;-0.27;72.05;94721.03;5052446;28;20123;-72
2021/04/27 03:44:25;;;;;;;18.48;8.00;;;;;;;-0.32;72.50;94728.63;5035233;28;20148;-72
2021/04/27 03:46:50;;;;;;;14.25;7.75;;;;;;;-0.23;71.83;94731.69;5050300;28;20037;-72
2021/04/27 03:49:16;;;;;;;15.77;8.07;;;;;;;-0.24;72.76;94723.16;5041256;28;20086;-72
2021/04/27 03:51:42;;;;;;;16.40;7.68;;;;;;;-0.25;72.26;94726.75;5051677;28;20049;-72
2021/04/27 03:54:07;;;;;;;14.23;8.10;;;;;;;-0.22;72.80;94726.31;5037212;28;20041;-72
2021/04/27 03:56:33;;;;;;;17.88;8.50;;;;;;;-0.27;72.73;94726.19;5032006;28;20045;-73
2021/04/27 03:58:59;;;;;;;16.25;8.63;;;;;;;-0.19;72.34;94723.31;5035064;28;20041;-72
2021/04/27 04:01:24;;;;;;;17.77;8.25;;;;;;;-0.23;72.46;94717.00;5052169;28;20039;-72
2021/04/27 04:03:50;;;;;;;17.27;8.43;;;;;;;-0.22;71.93;94728.88;5044790;28;20053;-72
2021/04/27 04:06:16;;;;;;;17.65;8.23;;;;;;;-0.23;72.83;94727.34;5039454;28;20071;-72
2021/04/27 04:08:41;;;;;;;17.33;8.98;;;;;;;-0.25;72.58;94728.56;5032311;28;20042;-72
2021/04/27 04:11:07;;;;;;;16.90;8.32;;;;;;;-0.25;71.91;94733.72;5044840;28;20462;-72
2021/04/27 04:13:33;;;;;;;15.75;8.50;;;;;;;-0.26;72.16;94727.78;5050185;28;20037;-72
2021/04/27 04:15:59;;;;;;;20.83;8.13;;;;;;;-0.26;72.95;94727.78;5046352;28;20071;-72
2021/04/27 04:18:25;;;;;;;12.88;7.50;;;;;;;-0.21;71.94;94735.66;5033253;28;20054;-72
2021/04/27 04:20:52;;;;;;;16.90;8.85;;;;;;;-0.27;73.34;94726.19;5049339;28;20475;-72
2021/04/27 04:23:18;;;;;;;16.40;7.93;;;;;;;-0.20;72.42;94736.47;5049015;28;20048;-72
2021/04/27 04:25:44;;;;;;;19.45;9.57;;;;;;;-0.24;73.51;94730.16;5037159;28;20510;-73
2021/04/27 04:28:10;;;;;;;14.48;7.85;;;;;;;-0.20;72.58;94731.28;5033138;28;20045;-72
2021/04/27 04:30:36;;;;;;;16.85;8.18;;;;;;;-0.25;73.16;94739.69;5046872;28;20385;-72
2021/04/27 04:33:03;;;;;;;29.38;9.70;;;;;;;-0.25;73.23;94733.72;5034318;28;20418;-72
2021/04/27 04:35:30;;;;;;;21.40;9.48;;;;;;;-0.24;73.63;94730.91;5032878;28;20041;-72
2021/04/27 04:37:56;;;;;;;15.38;8.27;;;;;;;-0.23;73.20;94722.16;5031813;28;20116;-72
2021/04/27 04:40:21;;;;;;;16.58;8.73;;;;;;;-0.12;72.74;94727.59;5037439;28;20103;-73
2021/04/27 04:42:47;;;;;;;17.67;9.20;;;;;;;-0.09;73.11;94729.72;5051581;28;20048;-72
2021/04/27 04:45:15;;;;;;;20.05;8.88;;;;;;;0.02;73.25;94728.97;5035490;28;20037;-72
2021/04/27 04:47:41;;;;;;;19.00;8.88;;;;;;;0.19;72.97;94733.47;5031672;28;20388;-72
2021/04/27 04:50:09;;;;;;;18.75;9.27;;;;;;;0.24;72.79;94720.69;5044874;28;20488;-72
2021/04/27 04:52:35;;;;;;;18.40;9.63;;;;;;;0.54;72.54;94730.16;5044425;28;20049;-72
2021/04/27 04:55:01;;;;;;;21.42;9.02;;;;;;;0.48;72.16;94722.25;5031155;28;20088;-72
2021/04/27 04:57:27;;;;;;;22.45;9.15;;;;;;;0.58;72.13;94731.28;5031078;28;20044;-72
2021/04/27 04:59:53;;;;;;;20.88;8.98;;;;;;;0.82;71.45;94722.47;5040041;28;20037;-72
2021/04/27 05:02:18;;;;;;;16.45;9.02;;;;;;;0.81;72.12;94731.25;5043392;28;20041;-72
2021/04/27 05:04:44;;;;;;;21.55;9.85;;;;;;;0.98;71.13;94725.41;5048497;28;20041;-72
2021/04/27 05:07:12;;;;;;;16.58;9.15;;;;;;;1.06;70.89;94727.63;5034700;28;20108;-72
2021/04/27 05:09:39;;;;;;;22.88;9.25;;;;;;;1.18;70.34;94730.22;5044970;28;20065;-71
2021/04/27 05:12:06;;;;;;;20.17;9.23;;;;;;;1.23;70.29;94724.31;5048225;28;20044;-72
2021/04/27 05:14:38;;;;;;;16.75;8.73;;;;;;;1.27;69.79;94728.03;5041289;28;20037;-72
2021/04/27 05:17:03;;;;;;;16.75;8.65;;;;;;;1.44;69.37;94728.06;5046571;28;20095;-72
2021/04/27 05:19:30;;;;;;;21.90;10.18;;;;;;;1.53;69.42;94727.50;5037083;28;20037;-73
2021/04/27 05:21:56;;;;;;;22.77;9.00;;;;;;;1.61;69.44;94733.31;5047775;28;20037;-72
2021/04/27 05:24:22;;;;;;;18.02;8.82;;;;;;;1.58;68.84;94726.00;5049638;28;20119;-72
2021/04/27 05:26:48;;;;;;;19.48;9.50;;;;;;;1.72;69.06;94724.72;5034782;28;20498;-72
2021/04/27 05:29:13;;;;;;;25.77;9.75;;;;;;;1.78;68.05;94723.81;5036422;28;20048;-72
2021/04/27 05:31:40;;;;;;;18.23;9.13;;;;;;;1.83;68.82;94716.09;5049835;28;20045;-73
2021/04/27 05:34:06;;;;;;;15.38;8.73;;;;;;;1.92;68.17;94713.91;5041354;28;20637;-72
2021/04/27 05:36:31;;;;;;;19.27;9.50;;;;;;;2.02;68.28;94718.47;5030419;28;20033;-72
2021/04/27 05:38:57;;;;;;;18.33;8.70;;;;;;;2.25;67.01;94707.94;5032036;28;20257;-72
2021/04/27 05:41:23;;;;;;;19.50;9.48;;;;;;;2.35;66.38;94716.91;5030563;28;20046;-72
2021/04/27 05:43:48;;;;;;;19.50;8.73;;;;;;;2.41;66.54;94711.56;5036284;28;20552;-72
2021/04/27 05:46:14;;;;;;;20.50;8.43;;;;;;;2.63;65.15;94712.63;5039922;28;20034;-72
2021/04/27 05:48:39;;;;;;;35.72;9.43;;;;;;;2.59;65.70;94713.13;5041269;28;20095;-72
2021/04/27 05:51:05;;;;;;;18.92;9.52;;;;;;;2.78;64.08;94711.03;5042548;28;20550;-72
2021/04/27 05:53:30;;;;;;;24.08;9.15;;;;;;;2.95;64.56;94710.22;5033377;28;20037;-72
2021/04/27 05:55:56;;;;;;;19.60;8.48;;;;;;;3.01;63.58;94713.66;5045018;28;20491;-71
2021/04/27 05:58:21;;;;;;;22.17;9.25;;;;;;;3.00;63.96;94712.09;5034172;28;20533;-72
2021/04/27 06:00:47;;;;;;;17.08;9.60;;;;;;;3.05;63.95;94714.78;5039463;28;20042;-72
2021/04/27 06:03:13;;;;;;;15.38;8.55;;;;;;;3.17;63.50;94718.03;5036223;28;20045;-72
2021/04/27 06:05:38;;;;;;;17.35;8.75;;;;;;;3.20;63.64;94709.72;5046723;28;20552;-71
2021/04/27 06:08:04;;;;;;;20.83;9.57;;;;;;;3.25;64.48;94715.00;5030696;28;20052;-71
2021/04/27 06:10:30;;;;;;;18.08;8.95;;;;;;;3.33;63.29;94715.59;5032649;28;20045;-71
2021/04/27 06:12:55;;;;;;;16.58;8.90;;;;;;;3.43;62.86;94710.50;5039710;28;20045;-71
2021/04/27 06:15:21;;;;;;;17.02;8.52;;;;;;;3.49;62.90;94709.53;5034363;28;20096;-71
2021/04/27 06:17:46;;;;;;;20.33;9.02;;;;;;;3.47;64.26;94706.41;5037291;28;20041;-72
2021/04/27 06:20:12;;;;;;;15.90;9.52;;;;;;;3.62;62.03;94709.16;5034101;28;20033;-72
2021/04/27 06:22:38;;;;;;;20.98;8.40;;;;;;;3.68;62.68;94704.81;5032005;28;20258;-71
2021/04/27 06:25:06;;;;;;;20.10;8.45;;;;;;;3.77;62.17;94705.16;5037264;28;20049;-71
2021/04/27 06:27:32;;;;;;;17.88;9.13;;;;;;;3.87;61.98;94710.44;5039961;28;20044;-72
2021/04/27 06:29:59;;;;;;;18.70;8.73;;;;;;;4.10;61.99;94703.38;5030916;28;20045;-72
2021/04/27 06:32:25;;;;;;;20.35;9.60;;;;;;;4.18;62.35;94708.13;5039611;28;20053;-71
2021/04/27 06:34:51;;;;;;;16.80;8.38;;;;;;;4.16;62.09;94707.56;5045555;28;20044;-72
2021/04/27 06:37:16;;;;;;;15.85;8.93;;;;;;;4.25;61.36;94710.50;5044924;28;20446;-71
2021/04/27 06:39:42;;;;;;;22.38;9.77;;;;;;;4.29;61.14;94696.72;5033169;28;20049;-71
2021/04/27 06:42:08;;;;;;;15.93;8.70;;;;;;;4.32;61.06;94693.66;5032646;28;20045;-73
2021/04/27 06:44:34;;;;;;;20.27;9.35;;;;;;;4.54;60.40;94691.94;5030307;28;20037;-72
2021/04/27 06:46:59;;;;;;;16.52;8.82;;;;;;;4.77;59.31;94696.00;5029688;28;20128;-71
2021/04/27 06:49:25;;;;;;;21.25;9.63;;;;;;;4.86;59.44;94694.50;5033335;28;20052;-71
2021/04/27 06:51:51;;;;;;;16.83;9.18;;;;;;;4.73;61.37;94694.94;5032973;28;20069;-71
2021/04/27 06:54:17;;;;;;;22.05;9.30;;;;;;;4.85;59.24;94698.13;5030851;28;20040;-72
2021/04/27 06:56:42;;;;;;;17.02;9.07;;;;;;;4.94;59.45;94694.03;5030014;28;20038;-71
2021/04/27 06:59:10;;;;;;;16.73;8.73;;;;;;;5.08;58.76;94691.72;5033639;28;20085;-72
2021/04/27 07:01:36;;;;;;;18.63;9.80;;;;;;;5.05;60.13;94691.47;5045040;28;20044;-72
2021/04/27 07:04:01;;;;;;;24.83;9.15;;;;;;;5.21;58.83;94695.69;5049771;28;20045;-73
2021/04/27 07:06:27;;;;;;;16.85;9.13;;;;;;;5.23;59.18;94687.59;5036760;28;20045;-72
2021/04/27 07:08:52;;;;;;;20.48;8.63;;;;;;;5.58;57.68;94681.72;5040259;28;20087;-72
2021/04/27 07:11:18;;;;;;;15.10;8.57;;;;;;;5.91;56.33;94682.31;5034543;28;20128;-72
2021/04/27 07:13:43;;;;;;;21.15;9.10;;;;;;;5.73;56.86;94680.97;5033306;28;20037;-72
2021/04/27 07:16:09;;;;;;;16.73;9.00;;;;;;;5.77;57.40;94682.00;5033480;28;20052;-71
2021/04/27 07:18:34;;;;;;;20.27;9.73;;;;;;;5.72;57.07;94682.78;5041110;28;20083;-72
2021/04/27 07:21:00;;;;;;;17.85;9.27;;;;;;;5.87;56.73;94681.25;5043813;28;20174;-71
2021/04/27 07:23:26;;;;;;;16.48;9.13;;;;;;;6.14;56.22;94680.25;5045021;28;20041;-71
2021/04/27 07:25:52;;;;;;;15.73;9.18;;;;;;;6.19;56.61;94677.63;5050792;28;20040;-72
2021/04/27 07:28:17;;;;;;;20.60;10.15;;;;;;;6.11;56.98;94676.34;5042012;28;20082;-72
2021/04/27 07:30:44;;;;;;;20.65;10.05;;;;;;;6.06;56.83;94678.94;5032264;28;20057;-71
2021/04/27 07:33:11;;;;;;;15.73;8.68;;;;;;;6.30;56.34;94673.97;5034791;28;20049;-71
2021/04/27 07:35:37;;;;;;;18.15;9.32;;;;;;;6.43;57.78;94677.13;5035503;28;20446;-72
2021/04/27 07:38:03;;;;;;;16.20;9.50;;;;;;;6.52;56.43;94670.28;5041542;28;20045;-72
2021/04/27 07:40:33;;;;;;;21.90;9.60;;;;;;;6.66;55.45;94671.31;5045140;28;20115;-72
2021/04/27 07:43:00;;;;;;;17.70;9.73;;;;;;;6.62;54.49;94670.28;5051592;28;20037;-71
2021/04/27 07:45:31;;;;;;;19.40;10.10;;;;;;;6.68;55.30;94668.44;5046414;28;20052;-72
2021/04/27 07:48:02;;;;;;;19.15;10.10;;;;;;;6.76;54.58;94671.28;5050655;28;20076;-71
2021/04/27 07:50:29;;;;;;;17.75;9.38;;;;;;;6.72;54.09;94670.28;5032489;28;20056;-72
2021/04/27 07:52:55;;;;;;;16.55;9.43;;;;;;;6.80;54.28;94670.78;5040306;28;20492;-71
2021/04/27 07:55:21;;;;;;;19.60;10.57;;;;;;;7.06;54.51;94664.41;5033308;28;20037;-72
2021/04/27 07:57:47;;;;;;;20.52;9.80;;;;;;;7.00;53.59;94660.25;5037218;28;20137;-72
2021/04/27 08:00:13;;;;;;;18.33;9.55;;;;;;;7.13;54.35;94668.59;5040125;28;20037;-72
2021/04/27 08:02:40;;;;;;;15.68;9.20;;;;;;;7.42;52.85;94661.63;5047452;28;20120;-72
2021/04/27 08:05:06;;;;;;;17.17;9.50;;;;;;;7.60;53.17;94664.69;5037735;28;20045;-71
2021/04/27 08:07:32;;;;;;;16.25;9.85;;;;;;;7.47;53.97;94658.22;5038932;28;20079;-72
2021/04/27 08:09:58;;;;;;;15.90;9.90;;;;;;;7.68;53.07;94664.13;5033846;28;20044;-72
2021/04/27 08:12:24;;;;;;;22.10;9.65;;;;;;;7.56;52.25;94661.06;5047862;28;20415;-72
2021/04/27 08:14:49;;;;;;;25.63;9.70;;;;;;;7.69;52.25;94655.22;5042287;28;20036;-72
2021/04/27 08:17:15;;;;;;;17.17;10.23;;;;;;;7.75;52.37;94648.88;5045652;28;20041;-73
2021/04/27 08:19:41;;;;;;;19.65;10.00;;;;;;;7.92;52.57;94653.75;5035517;28;20042;-72
2021/04/27 08:22:07;;;;;;;24.33;10.55;;;;;;;7.89;52.56;94653.53;5044232;28;20543;-72
2021/04/27 08:24:36;;;;;;;26.50;10.30;;;;;;;8.16;51.65;94650.44;5044502;28;20041;-71
2021/04/27 08:27:02;;;;;;;18.13;10.30;;;;;;;8.14;50.77;94655.16;5045271;28;20056;-72
2021/04/27 08:29:28;;;;;;;14.60;9.48;;;;;;;8.28;52.04;94644.84;5038677;28;20037;-71
2021/04/27 08:31:53;;;;;;;31.33;10.13;;;;;;;8.22;51.61;94651.19;5045661;28;20056;-72
2021/04/27 08:34:19;;;;;;;24.52;10.25;;;;;;;8.26;52.00;94646.94;5047058;28;20065;-68
2021/04/27 08:36:45;;;;;;;20.85;10.45;;;;;;;8.38;50.64;94646.59;5036151;28;20108;-72
2021/04/27 08:39:11;;;;;;;22.60;10.75;;;;;;;8.73;49.77;94650.72;5040542;28;20048;-71
2021/04/27 08:41:37;;;;;;;22.13;10.10;;;;;;;8.71;51.03;94647.59;5047845;28;20045;-71
2021/04/27 08:44:04;;;;;;;19.63;10.70;;;;;;;9.05;50.10;94651.97;5044279;28;20513;-72
2021/04/27 08:46:30;;;;;;;16.45;10.57;;;;;;;9.06;50.08;94648.25;5042866;28;20045;-72
2021/04/27 08:48:57;;;;;;;17.25;10.27;;;;;;;9.00;50.63;94646.78;5043826;28;20037;-69
2021/04/27 08:51:22;;;;;;;16.58;10.05;;;;;;;9.08;49.96;94635.66;5046521;28;20574;-70
2021/04/27 08:53:48;;;;;;;18.92;10.05;;;;;;;9.41;49.26;94637.59;5044630;28;20047;-72
2021/04/27 08:56:14;;;;;;;18.90;10.70;;;;;;;9.44;48.00;94624.72;5044230;28;20037;-71
2021/04/27 08:58:40;;;;;;;21.58;10.40;;;;;;;9.51;48.73;94627.75;5046919;28;20494;-72
2021/04/27 09:01:06;;;;;;;17.15;10.27;;;;;;;9.69;48.40;94626.19;5044889;28;20047;-71
2021/04/27 09:03:43;;;;;;;14.25;9.80;;;;;;;9.86;47.92;94630.94;5045480;28;20041;-71
2021/04/27 09:06:14;;;;;;;16.52;10.38;;;;;;;10.02;47.14;94630.72;5041479;28;20053;-71
2021/04/27 09:08:41;;;;;;;17.77;10.50;;;;;;;10.02;47.33;94625.44;5042238;28;20053;-70
2021/04/27 09:11:24;;;;;;;21.55;10.70;;;;;;;10.16;47.03;94626.28;5046256;28;20063;-72
2021/04/27 09:14:19;;;;;;;17.88;10.32;;;;;;;10.21;47.31;94620.94;5046287;28;20094;-71
2021/04/27 09:17:00;;;;;;;16.80;10.15;;;;;;;10.45;46.41;94617.41;5035285;28;20048;-70
2021/04/27 09:19:35;;;;;;;19.95;10.43;;;;;;;10.46;46.57;94624.25;5044676;28;20037;-72
2021/04/27 09:22:22;;;;;;;17.13;9.57;;;;;;;10.67;46.23;94613.34;5044991;28;20044;-71
2021/04/27 09:24:51;;;;;;;19.85;9.73;;;;;;;11.02;46.21;94614.53;5043411;28;20040;-70
2021/04/27 09:27:30;;;;;;;18.88;10.30;;;;;;;11.24;45.84;94605.91;5042385;28;20439;-69
2021/04/27 09:29:58;;;;;;;16.40;9.88;;;;;;;11.04;44.62;94611.59;5043644;28;20114;-72
2021/04/27 09:32:35;;;;;;;19.13;10.35;;;;;;;11.02;45.32;94603.19;5042349;28;20045;-69
2021/04/27 09:35:22;;;;;;;17.05;10.18;;;;;;;11.05;45.65;94610.53;5033435;28;20045;-69
2021/04/27 09:38:05;;;;;;;18.83;10.60;;;;;;;10.85;44.95;94603.81;5031263;28;20491;-69
2021/04/27 09:40:31;;;;;;;20.37;10.13;;;;;;;11.04;45.17;94603.69;5040186;28;20038;-71
2021/04/27 09:43:04;;;;;;;16.35;10.40;;;;;;;11.05;45.69;94603.41;5036827;28;20044;-71
2021/04/27 09:45:41;;;;;;;21.83;10.55;;;;;;;11.15;44.70;94602.41;5030445;28;21741;-70
2021/04/27 09:48:08;;;;;;;24.20;11.15;;;;;;;11.45;44.91;94600.22;5030244;28;20659;-68
2021/04/27 09:50:33;;;;;;;20.40;10.48;;;;;;;11.69;44.95;94601.81;5033203;28;20037;-71
2021/04/27 09:52:59;;;;;;;20.35;10.27;;;;;;;12.07;44.33;94591.72;5043460;28;20052;-70
2021/04/27 09:55:25;;;;;;;18.50;9.93;;;;;;;12.39;43.34;94602.31;5042675;28;20045;-71
2021/04/27 09:57:53;;;;;;;17.33;10.35;;;;;;;12.34;42.68;94597.13;5035994;28;20037;-71
2021/04/27 10:00:25;;;;;;;21.02;10.15;;;;;;;12.62;42.35;94593.25;5034902;28;20042;-71
2021/04/27 10:02:52;;;;;;;21.33;10.73;;;;;;;12.84;41.91;94594.25;5044738;28;20068;-71
2021/04/27 10:05:18;;;;;;;17.65;11.23;;;;;;;12.56;42.14;94589.19;5032627;28;20503;-71
2021/04/27 10:07:44;;;;;;;20.23;10.60;;;;;;;12.81;41.88;94589.59;5040145;28;20044;-70
2021/04/27 10:10:12;;;;;;;19.35;9.88;;;;;;;13.20;41.61;94584.56;5032054;28;20038;-69
2021/04/27 10:12:38;;;;;;;18.77;10.38;;;;;;;13.16;40.75;94585.19;5045995;28;20045;-73
2021/04/27 10:15:05;;;;;;;21.98;10.35;;;;;;;13.91;39.28;94576.38;5038507;28;20045;-71
2021/04/27 10:17:30;;;;;;;16.77;10.48;;;;;;;14.37;39.65;94572.25;5042421;28;20064;-72
2021/04/27 10:19:58;;;;;;;20.08;10.30;;;;;;;14.50;37.76;94575.78;5049177;28;20065;-72
2021/04/27 10:22:25;;;;;;;16.80;10.35;;;;;;;14.51;37.12;94571.25;5049123;28;20037;-71
2021/04/27 10:24:52;;;;;;;19.52;10.95;;;;;;;15.53;35.77;94560.75;5031471;28;20487;-72
2021/04/27 10:27:22;;;;;;;18.45;10.25;;;;;;;15.59;36.00;94562.13;5038231;28;20114;-71
2021/04/27 10:29:48;;;;;;;20.45;10.60;;;;;;;16.59;34.54;94564.00;5049354;28;20045;-71
2021/04/27 10:32:19;;;;;;;17.65;9.88;;;;;;;16.95;32.91;94562.50;5051869;28;20044;-69
2021/04/27 10:35:00;;;;;;;15.52;10.48;;;;;;;17.65;31.44;94564.16;5034621;28;20458;-69
2021/04/27 10:37:32;;;;;;;19.48;10.48;;;;;;;17.81;31.94;94554.38;5037583;28;20041;-70
2021/04/27 10:39:58;;;;;;;19.15;10.82;;;;;;;17.26;32.84;94553.94;5045977;28;20037;-68
2021/04/27 10:42:31;;;;;;;19.58;11.93;;;;;;;16.51;33.33;94543.66;5033967;28;20521;-69
2021/04/27 10:45:03;;;;;;;16.42;10.80;;;;;;;18.60;31.42;94544.19;5036742;28;20049;-69
2021/04/27 10:47:37;;;;;;;15.23;10.50;;;;;;;18.92;30.54;94538.88;5042455;28;20082;-68
2021/04/27 10:50:03;;;;;;;17.20;11.65;;;;;;;17.12;32.37;94546.34;5038305;28;20541;-69
2021/04/27 10:52:34;;;;;;;25.73;11.40;;;;;;;17.40;31.84;94540.28;5043380;28;20096;-70
2021/04/27 10:55:23;;;;;;;21.35;11.70;;;;;;;18.13;31.48;94527.84;5037715;28;20044;-69
2021/04/27 10:57:49;;;;;;;20.63;10.85;;;;;;;17.59;31.74;94536.25;5044567;28;20037;-69
2021/04/27 11:00:42;;;;;;;17.17;10.45;;;;;;;17.60;31.81;94519.19;5043746;28;20049;-69
2021/04/27 11:03:18;;;;;;;19.35;10.80;;;;;;;17.78;31.38;94523.09;5034195;28;20045;-70
2021/04/27 11:05:51;;;;;;;22.50;10.95;;;;;;;17.96;31.73;94517.50;5042115;28;20558;-70
2021/04/27 11:08:17;;;;;;;17.38;10.77;;;;;;;18.40;30.39;94525.44;5043276;28;20040;-70
2021/04/27 11:10:44;;;;;;;15.60;10.57;;;;;;;18.04;30.77;94521.88;5040501;28;20037;-70
2021/04/27 11:13:13;;;;;;;18.13;11.48;;;;;;;17.78;31.64;94527.66;5037198;28;20449;-70
2021/04/27 11:15:44;;;;;;;18.58;11.00;;;;;;;19.40;29.27;94520.88;5045865;28;20037;-70
2021/04/27 11:18:17;;;;;;;23.27;10.57;;;;;;;19.42;28.78;94518.63;5036267;28;20068;-71
2021/04/27 11:21:05;;;;;;;22.38;13.77;;;;;;;18.29;31.29;94519.13;5031500;28;20411;-70
2021/04/27 11:23:36;;;;;;;19.60;12.32;;;;;;;18.36;30.96;94516.63;5040910;28;20057;-69
2021/04/27 11:26:23;;;;;;;19.98;11.10;;;;;;;19.81;28.88;94505.31;5046272;28;20045;-69
2021/04/27 11:28:57;;;;;;;20.35;11.23;;;;;;;19.04;29.50;94504.13;5048277;28;20053;-69